createdAt,value
2023-01-31T00:02:35.272Z,97173.59
2023-01-31T00:06:35.038Z,97175.11
2023-01-31T00:09:59.385Z,97180.38
2023-01-31T00:13:37.637Z,97184.34
2023-01-31T00:17:14.735Z,97178.79
2023-01-31T00:21:16.454Z,97183.57
2023-01-31T00:24:42.462Z,97177.35
2023-01-31T00:28:41.442Z,97180.17
2023-01-31T00:32:07.802Z,97188.46
2023-01-31T00:36:18.610Z,97195.88
2023-01-31T00:40:02.012Z,97194.23
2023-01-31T00:43:44.618Z,97203.34
2023-01-31T00:47:08.911Z,97207.20
2023-01-31T00:50:46.657Z,97211.39
2023-01-31T00:54:23.894Z,97217.56
2023-01-31T00:58:01.569Z,97226.41
2023-01-31T01:01:58.248Z,97234.50
2023-01-31T01:05:22.325Z,97236.55
2023-01-31T01:09:00.121Z,97241.21
2023-01-31T01:12:56.825Z,97242.29
2023-01-31T01:16:28.963Z,97251.30
2023-01-31T01:19:58.202Z,97260.13
2023-01-31T01:23:57.933Z,97259.85
2023-01-31T01:27:22.429Z,97262.98
2023-01-31T01:30:59.761Z,97267.31
2023-01-31T01:34:56.241Z,97270.02
2023-01-31T01:38:43.146Z,97274.88
2023-01-31T01:42:08.268Z,97277.51
2023-01-31T01:45:45.590Z,97280.35
2023-01-31T01:49:42.143Z,97282.41
2023-01-31T01:53:28.493Z,97291.31
2023-01-31T01:57:05.304Z,97289.80
2023-01-31T02:00:53.964Z,97293.70
2023-01-31T02:04:40.137Z,97298.90
2023-01-31T02:08:05.460Z,97302.05
2023-01-31T02:11:41.766Z,97305.58
2023-01-31T02:15:20.402Z,97312.11
2023-01-31T02:18:58.216Z,97312.48
2023-01-31T02:23:16.251Z,97319.70
2023-01-31T02:27:12.277Z,97330.09
2023-01-31T02:31:29.548Z,97319.58
2023-01-31T02:35:17.133Z,97324.33
2023-01-31T02:39:07.091Z,97324.91
2023-01-31T02:43:04.025Z,97323.04
2023-01-31T02:47:26.609Z,97333.65
2023-01-31T02:51:04.329Z,97334.34
2023-01-31T02:55:30.867Z,97338.03
2023-01-31T02:59:22.006Z,97346.42
2023-01-31T03:02:48.214Z,97345.85
2023-01-31T03:06:25.294Z,97344.19
2023-01-31T03:10:35.220Z,97351.63
2023-01-31T03:14:14.862Z,97356.29
2023-01-31T03:18:15.475Z,97367.79
2023-01-31T03:21:47.995Z,97368.73
2023-01-31T03:25:23.207Z,97365.38
2023-01-31T03:29:17.431Z,97373.36
2023-01-31T03:32:51.640Z,97383.45
2023-01-31T03:36:51.896Z,97385.70
2023-01-31T03:40:34.848Z,97388.83
2023-01-31T03:44:09.300Z,97387.81
2023-01-31T03:47:45.929Z,97395.44
2023-01-31T03:51:27.272Z,97401.61
2023-01-31T03:55:24.320Z,97403.17
2023-01-31T03:58:53.843Z,97403.55
2023-01-31T04:02:50.004Z,97409.53
2023-01-31T04:06:34.011Z,97425.88
2023-01-31T04:10:19.392Z,97432.90
2023-01-31T04:13:44.424Z,97449.69
2023-01-31T04:17:40.232Z,97456.69
2023-01-31T04:21:04.407Z,97460.20
2023-01-31T04:25:01.494Z,97461.83
2023-01-31T04:28:25.670Z,97463.55
2023-01-31T04:32:03.765Z,97480.09
2023-01-31T04:35:42.827Z,97480.30
2023-01-31T04:39:18.949Z,97484.98
2023-01-31T04:42:56.164Z,97488.91
2023-01-31T04:46:34.025Z,97494.06
2023-01-31T04:50:13.384Z,97503.24
2023-01-31T04:53:49.415Z,97504.27
2023-01-31T04:57:26.955Z,97501.92
2023-01-31T05:01:25.565Z,97508.67
2023-01-31T05:05:08.820Z,97514.02
2023-01-31T05:08:32.863Z,97514.16
2023-01-31T05:12:10.215Z,97518.81
2023-01-31T05:16:09.975Z,97521.27
2023-01-31T05:19:52.632Z,97532.40
2023-01-31T05:23:18.374Z,97539.36
2023-01-31T05:26:59.591Z,97545.80
2023-01-31T05:30:32.495Z,97552.83
2023-01-31T05:34:15.331Z,97554.54
2023-01-31T05:37:47.325Z,97564.81
2023-01-31T05:41:24.771Z,97571.30
2023-01-31T05:45:03.043Z,97576.93
2023-01-31T05:48:59.236Z,97582.95
2023-01-31T05:52:24.314Z,97588.34
2023-01-31T05:56:22.909Z,97594.07
2023-01-31T05:59:54.990Z,97602.73
2023-01-31T06:03:45.871Z,97616.56
2023-01-31T06:07:28.897Z,97623.39
2023-01-31T06:10:52.521Z,97634.08
2023-01-31T06:14:30.852Z,97640.72
2023-01-31T06:18:26.886Z,97645.76
2023-01-31T06:21:51.861Z,97646.71
2023-01-31T06:25:29.490Z,97654.54
2023-01-31T06:29:25.210Z,97661.43
2023-01-31T06:33:10.174Z,97665.42
2023-01-31T06:36:35.425Z,97666.64
2023-01-31T06:40:35.842Z,97674.14
2023-01-31T06:44:01.058Z,97680.90
2023-01-31T06:47:37.510Z,97695.56
2023-01-31T06:51:34.147Z,97698.96
2023-01-31T06:54:58.051Z,97705.23
2023-01-31T06:58:54.934Z,97709.45
2023-01-31T07:02:18.899Z,97714.73
2023-01-31T07:05:57.224Z,97718.14
2023-01-31T07:09:39.006Z,97719.91
2023-01-31T07:13:12.028Z,97728.45
2023-01-31T07:17:08.528Z,97729.09
2023-01-31T07:20:51.454Z,97728.23
2023-01-31T07:24:34.336Z,97732.67
2023-01-31T07:28:16.997Z,97734.84
2023-01-31T07:31:40.956Z,97738.57
2023-01-31T07:35:39.319Z,97746.20
2023-01-31T07:39:23.543Z,97755.36
2023-01-31T07:43:07.206Z,97764.58
2023-01-31T07:46:34.528Z,97768.45
2023-01-31T07:50:31.288Z,97765.48
2023-01-31T07:54:14.030Z,97765.35
2023-01-31T07:57:57.236Z,97764.69
2023-01-31T08:01:44.938Z,97768.10
2023-01-31T08:05:32.139Z,97773.19
2023-01-31T08:08:58.839Z,97776.55
2023-01-31T08:12:33.991Z,97780.81
2023-01-31T08:16:12.575Z,97783.70
2023-01-31T08:19:49.277Z,97788.22
2023-01-31T08:23:27.993Z,97790.84
2023-01-31T08:27:23.454Z,97797.95
2023-01-31T08:31:10.796Z,97802.58
2023-01-31T08:34:35.948Z,97805.93
2023-01-31T08:38:16.565Z,97807.36
2023-01-31T08:42:11.982Z,97808.05
2023-01-31T08:45:54.806Z,97816.96
2023-01-31T08:49:21.396Z,97818.13
2023-01-31T08:53:00.576Z,97816.38
2023-01-31T08:56:55.854Z,97818.57
2023-01-31T09:00:22.198Z,97826.20
2023-01-31T09:03:58.445Z,97828.85
2023-01-31T09:07:35.949Z,97833.24
2023-01-31T09:11:19.711Z,97833.58
2023-01-31T09:15:10.611Z,97843.35
2023-01-31T09:18:35.930Z,97851.70
2023-01-31T09:22:12.153Z,97855.69
2023-01-31T09:26:10.913Z,97855.00
2023-01-31T09:29:53.956Z,97860.89
2023-01-31T09:33:18.707Z,97859.81
2023-01-31T09:37:15.280Z,97859.80
2023-01-31T09:40:40.997Z,97859.33
2023-01-31T09:44:37.941Z,97856.48
2023-01-31T09:48:07.459Z,97857.05
2023-01-31T09:51:41.020Z,97854.25
2023-01-31T09:55:23.089Z,97865.59
2023-01-31T09:59:19.566Z,97863.45
2023-01-31T10:03:17.832Z,97871.25
2023-01-31T10:07:05.691Z,97872.38
2023-01-31T10:10:55.984Z,97873.85
2023-01-31T10:14:38.730Z,97878.92
2023-01-31T10:18:12.354Z,97877.48
2023-01-31T10:22:07.185Z,97875.39
2023-01-31T10:25:36.926Z,97871.48
2023-01-31T10:29:30.552Z,97870.96
2023-01-31T10:33:05.070Z,97876.90
2023-01-31T10:37:12.588Z,97867.73
2023-01-31T10:41:06.216Z,97875.77
2023-01-31T10:44:36.945Z,97875.80
2023-01-31T10:48:14.218Z,97876.40
2023-01-31T10:52:28.903Z,97867.94
2023-01-31T10:56:11.338Z,97866.56
2023-01-31T10:59:45.262Z,97865.93
2023-01-31T11:03:33.803Z,97863.59
2023-01-31T11:07:17.392Z,97864.63
2023-01-31T11:11:13.518Z,97865.60
2023-01-31T11:15:07.079Z,97862.71
2023-01-31T11:18:52.231Z,97861.43
2023-01-31T11:22:29.394Z,97865.02
2023-01-31T11:25:58.679Z,97860.21
2023-01-31T11:29:54.155Z,97859.00
2023-01-31T11:33:44.224Z,97852.75
2023-01-31T11:37:34.176Z,97849.04
2023-01-31T11:41:00.615Z,97845.62
2023-01-31T11:44:57.694Z,97842.38
2023-01-31T11:48:43.903Z,97840.03
2023-01-31T11:52:33.267Z,97835.59
2023-01-31T11:56:25.100Z,97838.33
2023-01-31T11:59:54.760Z,97837.94
2023-01-31T12:03:27.741Z,97829.70
2023-01-31T12:07:20.342Z,97820.42
2023-01-31T12:11:30.301Z,97818.58
2023-01-31T12:15:15.092Z,97814.80
2023-01-31T12:19:03.703Z,97811.96
2023-01-31T12:22:38.057Z,97810.91
2023-01-31T12:26:16.345Z,97815.91
2023-01-31T12:30:20.621Z,97813.30
2023-01-31T12:34:02.066Z,97809.11
2023-01-31T12:37:37.099Z,97809.24
2023-01-31T12:41:41.347Z,97802.46
2023-01-31T12:45:52.483Z,97794.39
2023-01-31T12:50:12.790Z,97788.08
2023-01-31T12:53:58.731Z,97783.28
2023-01-31T12:58:19.360Z,97786.48
2023-01-31T13:01:53.389Z,97784.70
2023-01-31T13:05:43.376Z,97786.34
2023-01-31T13:09:24.768Z,97779.95
2023-01-31T13:13:22.131Z,97779.00
2023-01-31T13:17:11.787Z,97781.38
2023-01-31T13:20:58.469Z,97781.61
2023-01-31T13:24:29.667Z,97776.01
2023-01-31T13:28:01.443Z,97779.02
2023-01-31T13:32:16.528Z,97779.36
2023-01-31T13:35:43.906Z,97774.78
2023-01-31T13:39:49.315Z,97773.79
2023-01-31T13:43:32.114Z,97766.80
2023-01-31T13:47:26.513Z,97762.73
2023-01-31T13:51:35.958Z,97766.92
2023-01-31T13:55:39.132Z,97769.69
2023-01-31T13:59:08.821Z,97768.02
2023-01-31T14:02:59.911Z,97758.14
2023-01-31T14:06:54.519Z,97756.12
2023-01-31T14:10:29.046Z,97748.89
2023-01-31T14:14:28.824Z,97747.24
2023-01-31T14:17:52.633Z,97747.14
2023-01-31T14:21:30.614Z,97744.77
2023-01-31T14:25:41.080Z,97745.50
2023-01-31T14:29:19.639Z,97740.20
2023-01-31T14:32:50.043Z,97743.94
2023-01-31T14:36:57.196Z,97737.75
2023-01-31T14:40:34.114Z,97734.92
2023-01-31T14:44:23.397Z,97738.11
2023-01-31T14:48:06.758Z,97739.02
2023-01-31T14:51:55.138Z,97740.72
2023-01-31T14:56:11.656Z,97738.61
2023-01-31T15:00:06.892Z,97740.02
2023-01-31T15:03:36.392Z,97736.11
2023-01-31T15:07:29.296Z,97729.31
2023-01-31T15:11:40.235Z,97718.63
2023-01-31T15:15:37.687Z,97718.65
2023-01-31T15:19:11.924Z,97724.22
2023-01-31T15:23:05.364Z,97725.79
2023-01-31T15:26:34.067Z,97723.10
2023-01-31T15:30:30.173Z,97713.59
2023-01-31T15:34:22.065Z,97702.97
2023-01-31T15:37:46.817Z,97697.02
2023-01-31T15:41:41.792Z,97690.18
2023-01-31T15:45:19.287Z,97688.10
2023-01-31T15:48:44.190Z,97687.14
2023-01-31T15:52:22.894Z,97689.58
2023-01-31T15:56:05.238Z,97684.71
2023-01-31T15:59:37.135Z,97684.79
2023-01-31T16:03:22.468Z,97685.13
2023-01-31T16:07:20.458Z,97684.45
2023-01-31T16:10:47.695Z,97691.38
2023-01-31T16:14:23.403Z,97686.97
2023-01-31T16:18:03.903Z,97686.66
2023-01-31T16:21:43.098Z,97686.16
2023-01-31T16:25:38.415Z,97681.63
2023-01-31T16:29:24.726Z,97683.64
2023-01-31T16:32:51.565Z,97683.99
2023-01-31T16:37:07.300Z,97685.80
2023-01-31T16:40:53.251Z,97686.71
2023-01-31T16:44:26.695Z,97689.69
2023-01-31T16:47:56.508Z,97690.95
2023-01-31T16:51:46.036Z,97685.46
2023-01-31T16:55:16.794Z,97682.40
2023-01-31T16:58:59.367Z,97684.80
2023-01-31T17:02:31.648Z,97683.96
2023-01-31T17:06:05.873Z,97682.71
2023-01-31T17:09:42.371Z,97686.48
2023-01-31T17:13:38.181Z,97679.28
2023-01-31T17:17:21.994Z,97670.11
2023-01-31T17:21:05.629Z,97663.73
2023-01-31T17:24:50.262Z,97668.95
2023-01-31T17:28:33.056Z,97667.33
2023-01-31T17:31:56.832Z,97661.75
2023-01-31T17:35:53.662Z,97655.52
2023-01-31T17:39:37.583Z,97650.15
2023-01-31T17:43:04.558Z,97647.81
2023-01-31T17:46:39.083Z,97639.54
2023-01-31T17:50:27.943Z,97636.14
2023-01-31T17:53:54.459Z,97627.59
2023-01-31T17:57:32.242Z,97620.25
2023-01-31T18:01:16.092Z,97622.32
2023-01-31T18:04:47.556Z,97616.67
2023-01-31T18:08:25.122Z,97610.25
2023-01-31T18:12:22.070Z,97609.63
2023-01-31T18:16:17.527Z,97602.49
2023-01-31T18:19:51.198Z,97595.92
2023-01-31T18:23:19.347Z,97597.48
2023-01-31T18:27:16.411Z,97588.30
2023-01-31T18:30:40.446Z,97577.35
2023-01-31T18:34:18.822Z,97573.87
2023-01-31T18:38:15.362Z,97567.48
2023-01-31T18:41:39.549Z,97560.94
2023-01-31T18:45:17.098Z,97554.26
2023-01-31T18:49:13.472Z,97551.17
2023-01-31T18:52:56.306Z,97540.98
2023-01-31T18:56:22.278Z,97535.34
2023-01-31T18:59:58.149Z,97533.21
2023-01-31T19:03:36.790Z,97529.35
2023-01-31T19:07:13.610Z,97521.99
2023-01-31T19:10:51.274Z,97523.10
2023-01-31T19:14:28.983Z,97514.77
2023-01-31T19:18:06.817Z,97509.27
2023-01-31T19:21:44.349Z,97507.02
2023-01-31T19:25:22.220Z,97501.04
2023-01-31T19:29:00.699Z,97494.15
2023-01-31T19:32:56.118Z,97479.27
2023-01-31T19:36:23.264Z,97475.72
2023-01-31T19:39:57.623Z,97470.16
2023-01-31T19:43:35.413Z,97464.13
2023-01-31T19:47:13.013Z,97457.96
2023-01-31T19:51:15.183Z,97459.48
2023-01-31T19:54:41.368Z,97457.83
2023-01-31T19:58:17.366Z,97454.39
2023-01-31T20:01:55.044Z,97455.33
2023-01-31T20:05:33.699Z,97453.19
2023-01-31T20:09:14.985Z,97444.04
2023-01-31T20:12:48.207Z,97442.19
2023-01-31T20:16:26.533Z,97439.80
2023-01-31T20:20:22.878Z,97432.55
2023-01-31T20:23:49.131Z,97422.05
2023-01-31T20:27:43.771Z,97416.14
2023-01-31T20:31:13.984Z,97419.55
2023-01-31T20:34:45.746Z,97421.98
2023-01-31T20:38:42.005Z,97417.13
2023-01-31T20:42:06.538Z,97410.32
2023-01-31T20:46:05.141Z,97407.12
2023-01-31T20:49:48.330Z,97412.04
2023-01-31T20:53:32.058Z,97407.67
2023-01-31T20:57:17.272Z,97403.27
2023-01-31T21:01:04.099Z,97403.83
2023-01-31T21:04:29.370Z,97401.59
2023-01-31T21:08:06.967Z,97403.58
2023-01-31T21:11:45.009Z,97399.11
2023-01-31T21:15:22.650Z,97391.09
2023-01-31T21:19:19.171Z,97387.05
2023-01-31T21:22:43.277Z,97378.45
2023-01-31T21:26:23.432Z,97371.23
2023-01-31T21:29:58.633Z,97365.36
2023-01-31T21:33:37.138Z,97367.70
2023-01-31T21:37:47.381Z,97365.45
2023-01-31T21:41:41.703Z,97362.45
2023-01-31T21:45:08.195Z,97358.95
2023-01-31T21:48:44.110Z,97355.27
2023-01-31T21:52:21.673Z,97345.48
2023-01-31T21:56:09.623Z,97346.34
2023-01-31T21:59:39.434Z,97358.79
2023-01-31T22:03:16.241Z,97352.84
2023-01-31T22:07:12.796Z,97344.09
2023-01-31T22:10:37.105Z,97345.16
2023-01-31T22:14:33.871Z,97347.98
2023-01-31T22:18:17.129Z,97351.88
2023-01-31T22:21:42.613Z,97348.36
2023-01-31T22:25:18.735Z,97341.91
2023-01-31T22:29:02.318Z,97348.10
2023-01-31T22:32:34.486Z,97347.23
2023-01-31T22:36:33.630Z,97353.02
2023-01-31T22:40:18.024Z,97343.95
2023-01-31T22:43:44.970Z,97342.48
2023-01-31T22:47:38.861Z,97338.75
2023-01-31T22:51:25.405Z,97335.61
2023-01-31T22:55:10.338Z,97334.84
2023-01-31T22:58:35.064Z,97332.92
2023-01-31T23:02:12.596Z,97328.33
2023-01-31T23:05:50.338Z,97325.91
2023-01-31T23:09:27.856Z,97332.50
2023-01-31T23:13:24.478Z,97328.86
2023-01-31T23:17:07.032Z,97318.44
2023-01-31T23:20:50.532Z,97305.86
2023-01-31T23:24:15.091Z,97306.52
2023-01-31T23:27:52.165Z,97312.71
2023-01-31T23:31:30.008Z,97315.10
2023-01-31T23:35:26.472Z,97306.08
2023-01-31T23:38:50.880Z,97308.68
2023-01-31T23:42:29.211Z,97312.69
2023-01-31T23:46:06.067Z,97307.50
2023-01-31T23:49:43.822Z,97299.80
2023-01-31T23:53:21.578Z,97297.52
2023-01-31T23:56:59.046Z,97288.72
